createdAt,value
2023-02-15T00:00:33.438Z,3.05
2023-02-15T00:01:33.416Z,3.02
2023-02-15T00:02:33.454Z,2.94
2023-02-15T00:03:33.415Z,2.91
2023-02-15T00:04:33.688Z,2.88
2023-02-15T00:05:33.377Z,2.84
2023-02-15T00:06:33.367Z,2.77
2023-02-15T00:07:33.359Z,2.74
2023-02-15T00:08:33.384Z,2.70
2023-02-15T00:09:33.370Z,2.66
2023-02-15T00:10:33.325Z,2.64
2023-02-15T00:11:33.626Z,2.61
2023-02-15T00:12:33.325Z,2.58
2023-02-15T00:13:33.303Z,2.55
2023-02-15T00:14:33.308Z,2.56
2023-02-15T00:15:33.261Z,2.55
2023-02-15T00:16:33.282Z,2.56
2023-02-15T00:17:33.261Z,2.58
2023-02-15T00:18:33.548Z,2.59
2023-02-15T00:19:33.222Z,2.55
2023-02-15T00:20:33.329Z,2.53
2023-02-15T00:21:33.216Z,2.51
2023-02-15T00:22:33.210Z,2.49
2023-02-15T00:23:33.184Z,2.49
2023-02-15T00:24:33.208Z,2.48
2023-02-15T00:25:33.448Z,2.46
2023-02-15T00:26:33.191Z,2.41
2023-02-15T00:27:33.144Z,2.41
2023-02-15T00:28:33.132Z,2.41
2023-02-15T00:29:33.119Z,2.38
2023-02-15T00:30:33.171Z,2.35
2023-02-15T00:31:33.240Z,2.35
2023-02-15T00:32:33.436Z,2.41
2023-02-15T00:33:33.083Z,2.48
2023-02-15T00:34:33.097Z,2.58
2023-02-15T00:35:33.066Z,2.66
2023-02-15T00:36:33.057Z,2.73
2023-02-15T00:37:33.052Z,2.76
2023-02-15T00:38:33.090Z,2.77
2023-02-15T00:39:33.305Z,2.77
2023-02-15T00:40:33.047Z,2.73
2023-02-15T00:41:32.997Z,2.69
2023-02-15T00:42:33.014Z,2.66
2023-02-15T00:43:32.967Z,2.63
2023-02-15T00:44:32.985Z,2.63
2023-02-15T00:45:32.971Z,2.59
2023-02-15T00:46:33.236Z,2.63
2023-02-15T00:47:33.086Z,2.63
2023-02-15T00:48:32.927Z,2.67
2023-02-15T00:49:32.924Z,2.69
2023-02-15T00:50:32.966Z,2.73
2023-02-15T00:51:32.885Z,2.73
2023-02-15T00:52:32.908Z,2.73
2023-02-15T00:53:33.179Z,2.76
2023-02-15T00:54:32.865Z,2.77
2023-02-15T00:55:32.874Z,2.79
2023-02-15T00:56:32.908Z,2.82
2023-02-15T00:57:32.860Z,2.85
2023-02-15T00:58:32.832Z,2.87
2023-02-15T00:59:32.812Z,2.87
2023-02-15T01:00:33.157Z,2.84
2023-02-15T01:01:32.820Z,2.79
2023-02-15T01:02:32.819Z,2.79
2023-02-15T01:03:32.818Z,2.76
2023-02-15T01:04:32.836Z,2.73
2023-02-15T01:05:32.758Z,2.70
2023-02-15T01:06:32.763Z,2.69
2023-02-15T01:07:33.071Z,2.63
2023-02-15T01:08:32.771Z,2.59
2023-02-15T01:09:32.752Z,2.63
2023-02-15T01:10:32.709Z,2.66
2023-02-15T01:11:32.710Z,2.69
2023-02-15T01:12:32.682Z,2.73
2023-02-15T01:13:32.702Z,2.76
2023-02-15T01:14:33.004Z,2.76
2023-02-15T01:15:32.690Z,2.74
2023-02-15T01:16:32.653Z,2.71
2023-02-15T01:17:32.648Z,2.70
2023-02-15T01:18:32.644Z,2.66
2023-02-15T01:19:32.632Z,2.63
2023-02-15T01:20:32.655Z,2.58
2023-02-15T01:21:32.893Z,2.53
2023-02-15T01:22:32.580Z,2.49
2023-02-15T01:23:32.585Z,2.45
2023-02-15T01:24:32.574Z,2.37
2023-02-15T01:25:32.565Z,2.33
2023-02-15T01:26:32.613Z,2.26
2023-02-15T01:27:32.548Z,2.20
2023-02-15T01:28:32.809Z,2.15
2023-02-15T01:29:32.523Z,2.09
2023-02-15T01:30:32.506Z,2.04
2023-02-15T01:31:32.679Z,2.02
2023-02-15T01:32:32.530Z,1.98
2023-02-15T01:33:32.484Z,2.01
2023-02-15T01:34:32.477Z,2.13
2023-02-15T01:35:32.784Z,2.27
2023-02-15T01:36:32.461Z,2.30
2023-02-15T01:37:32.456Z,2.33
2023-02-15T01:38:32.469Z,2.33
2023-02-15T01:39:32.434Z,2.33
2023-02-15T01:40:32.445Z,2.28
2023-02-15T01:41:32.400Z,2.28
2023-02-15T01:42:32.705Z,2.27
2023-02-15T01:43:32.401Z,2.22
2023-02-15T01:44:32.404Z,2.17
2023-02-15T01:45:32.361Z,2.12
2023-02-15T01:46:32.442Z,2.08
2023-02-15T01:47:32.353Z,2.06
2023-02-15T01:48:32.333Z,2.02
2023-02-15T01:49:32.602Z,1.98
2023-02-15T01:50:32.335Z,2.02
2023-02-15T01:51:32.301Z,2.06
2023-02-15T01:52:32.286Z,2.08
2023-02-15T01:53:32.290Z,2.08
2023-02-15T01:54:32.271Z,2.09
2023-02-15T01:55:32.262Z,2.04
2023-02-15T01:56:32.558Z,2.04
2023-02-15T01:57:32.240Z,2.01
2023-02-15T01:58:32.222Z,1.99
2023-02-15T01:59:32.211Z,1.98
2023-02-15T02:00:32.201Z,2.01
2023-02-15T02:01:32.315Z,2.17
2023-02-15T02:02:32.236Z,2.34
2023-02-15T02:03:32.455Z,2.45
2023-02-15T02:04:32.155Z,2.49
2023-02-15T02:05:32.176Z,2.51
2023-02-15T02:06:32.146Z,2.52
2023-02-15T02:07:32.136Z,2.52
2023-02-15T02:08:32.143Z,2.53
2023-02-15T02:09:32.118Z,2.52
2023-02-15T02:10:32.418Z,2.53
2023-02-15T02:11:32.093Z,2.51
2023-02-15T02:12:32.087Z,2.51
2023-02-15T02:13:32.088Z,2.51
2023-02-15T02:14:32.104Z,2.52
2023-02-15T02:15:32.115Z,2.49
2023-02-15T02:16:32.061Z,2.46
2023-02-15T02:17:32.349Z,2.44
2023-02-15T02:18:32.021Z,2.41
2023-02-15T02:19:32.033Z,2.40
2023-02-15T02:20:32.046Z,2.37
2023-02-15T02:21:32.012Z,2.35
2023-02-15T02:22:31.976Z,2.34
2023-02-15T02:23:31.979Z,2.33
2023-02-15T02:24:31.961Z,2.31
2023-02-15T02:25:31.980Z,2.28
2023-02-15T02:26:31.995Z,2.28
2023-02-15T02:27:31.980Z,2.20
2023-02-15T02:28:31.938Z,2.15
2023-02-15T02:29:31.921Z,2.12
2023-02-15T02:30:32.131Z,2.08
2023-02-15T02:31:31.983Z,2.02
2023-02-15T02:32:32.368Z,1.97
2023-02-15T02:33:32.158Z,1.94
2023-02-15T02:34:31.867Z,1.90
2023-02-15T02:35:31.873Z,1.83
2023-02-15T02:36:31.860Z,1.82
2023-02-15T02:37:31.841Z,1.79
2023-02-15T02:38:31.855Z,1.78
2023-02-15T02:39:31.821Z,1.75
2023-02-15T02:40:32.095Z,1.71
2023-02-15T02:41:31.827Z,1.69
2023-02-15T02:42:31.778Z,1.65
2023-02-15T02:43:31.795Z,1.60
2023-02-15T02:44:31.785Z,1.57
2023-02-15T02:45:31.758Z,1.55
2023-02-15T02:46:31.831Z,1.54
2023-02-15T02:47:32.014Z,1.51
2023-02-15T02:48:31.713Z,1.50
2023-02-15T02:49:31.728Z,1.47
2023-02-15T02:50:31.745Z,1.44
2023-02-15T02:51:31.713Z,1.44
2023-02-15T02:52:31.674Z,1.46
2023-02-15T02:53:31.683Z,1.52
2023-02-15T02:54:31.940Z,1.61
2023-02-15T02:55:31.677Z,1.72
2023-02-15T02:56:31.683Z,1.76
2023-02-15T02:57:31.635Z,1.80
2023-02-15T02:58:31.609Z,1.85
2023-02-15T02:59:31.610Z,1.91
2023-02-15T03:00:31.610Z,1.93
2023-02-15T03:01:31.942Z,1.93
2023-02-15T03:02:31.623Z,1.93
2023-02-15T03:03:31.576Z,1.90
2023-02-15T03:04:31.558Z,1.91
2023-02-15T03:05:31.559Z,1.93
2023-02-15T03:06:31.528Z,1.94
2023-02-15T03:07:31.536Z,1.97
2023-02-15T03:08:31.848Z,1.99
2023-02-15T03:09:31.512Z,2.01
2023-02-15T03:10:31.529Z,2.01
2023-02-15T03:11:31.515Z,2.01
2023-02-15T03:12:31.501Z,1.99
2023-02-15T03:13:31.481Z,1.97
2023-02-15T03:14:31.488Z,1.94
2023-02-15T03:15:31.745Z,1.90
2023-02-15T03:16:31.549Z,1.85
2023-02-15T03:17:31.473Z,1.80
2023-02-15T03:18:31.429Z,1.78
2023-02-15T03:19:31.428Z,1.72
2023-02-15T03:20:31.461Z,1.71
2023-02-15T03:21:31.390Z,1.64
2023-02-15T03:22:31.682Z,1.61
2023-02-15T03:23:31.384Z,1.57
2023-02-15T03:24:31.378Z,1.57
2023-02-15T03:25:31.363Z,1.52
2023-02-15T03:26:31.374Z,1.51
2023-02-15T03:27:31.376Z,1.47
2023-02-15T03:28:31.356Z,1.44
2023-02-15T03:29:31.613Z,1.42
2023-02-15T03:30:31.355Z,1.39
2023-02-15T03:31:31.392Z,1.36
2023-02-15T03:32:32.350Z,1.34
2023-02-15T03:33:31.270Z,1.26
2023-02-15T03:34:31.267Z,1.26
2023-02-15T03:35:31.259Z,1.25
2023-02-15T03:36:31.513Z,1.24
2023-02-15T03:37:31.232Z,1.22
2023-02-15T03:38:31.254Z,1.19
2023-02-15T03:39:31.210Z,1.19
2023-02-15T03:40:31.206Z,1.16
2023-02-15T03:41:31.191Z,1.14
2023-02-15T03:42:31.176Z,1.14
2023-02-15T03:43:31.473Z,1.10
2023-02-15T03:44:31.266Z,1.10
2023-02-15T03:45:31.167Z,1.10
2023-02-15T03:46:31.223Z,1.08
2023-02-15T03:47:31.126Z,1.06
2023-02-15T03:48:31.126Z,1.06
2023-02-15T03:49:31.118Z,1.04
2023-02-15T03:50:31.419Z,1.03
2023-02-15T03:51:31.096Z,1.00
2023-02-15T03:52:31.080Z,1.00
2023-02-15T03:53:31.084Z,0.97
2023-02-15T03:54:31.072Z,0.97
2023-02-15T03:55:31.065Z,0.97
2023-02-15T03:56:31.058Z,0.96
2023-02-15T03:57:31.312Z,0.96
2023-02-15T03:58:31.021Z,0.94
2023-02-15T03:59:31.016Z,0.96
2023-02-15T04:00:31.008Z,0.96
2023-02-15T04:01:31.007Z,0.94
2023-02-15T04:02:31.012Z,0.92
2023-02-15T04:03:30.982Z,0.92
2023-02-15T04:04:31.254Z,0.89
2023-02-15T04:05:30.952Z,0.85
2023-02-15T04:06:30.951Z,0.80
2023-02-15T04:07:30.946Z,0.78
2023-02-15T04:08:30.996Z,0.78
2023-02-15T04:09:30.959Z,0.80
2023-02-15T04:10:30.920Z,0.79
2023-02-15T04:11:31.183Z,0.78
2023-02-15T04:12:30.866Z,0.79
2023-02-15T04:13:30.882Z,0.82
2023-02-15T04:14:30.888Z,0.83
2023-02-15T04:15:30.847Z,0.83
2023-02-15T04:16:31.341Z,0.85
2023-02-15T04:17:30.830Z,0.85
2023-02-15T04:18:31.100Z,0.82
2023-02-15T04:19:30.805Z,0.79
2023-02-15T04:20:30.827Z,0.75
2023-02-15T04:21:30.803Z,0.75
2023-02-15T04:22:30.801Z,0.71
2023-02-15T04:23:30.754Z,0.71
2023-02-15T04:24:30.743Z,0.71
2023-02-15T04:25:31.068Z,0.72
2023-02-15T04:26:30.767Z,0.80
2023-02-15T04:27:30.761Z,0.83
2023-02-15T04:28:30.702Z,0.88
2023-02-15T04:29:30.691Z,0.92
2023-02-15T04:30:30.766Z,0.96
2023-02-15T04:31:30.748Z,0.97
2023-02-15T04:32:30.999Z,1.03
2023-02-15T04:33:30.677Z,1.04
2023-02-15T04:34:30.675Z,1.03
2023-02-15T04:35:30.638Z,1.03
2023-02-15T04:36:30.629Z,1.00
2023-02-15T04:37:30.609Z,1.00
2023-02-15T04:38:30.658Z,0.96
2023-02-15T04:39:30.871Z,0.96
2023-02-15T04:40:30.574Z,0.96
2023-02-15T04:41:30.604Z,0.97
2023-02-15T04:42:30.559Z,1.01
2023-02-15T04:43:30.589Z,1.04
2023-02-15T04:44:30.590Z,1.04
2023-02-15T04:45:30.646Z,1.08
2023-02-15T04:46:30.790Z,1.14
2023-02-15T04:47:30.549Z,1.14
2023-02-15T04:48:30.505Z,1.12
2023-02-15T04:49:30.499Z,1.08
2023-02-15T04:50:30.517Z,1.07
2023-02-15T04:51:30.467Z,1.08
2023-02-15T04:52:30.460Z,1.08
2023-02-15T04:53:30.741Z,1.07
2023-02-15T04:54:30.437Z,1.06
2023-02-15T04:55:30.429Z,1.03
2023-02-15T04:56:30.509Z,1.03
2023-02-15T04:57:30.419Z,1.03
2023-02-15T04:58:30.409Z,0.98
2023-02-15T04:59:30.390Z,0.97
2023-02-15T05:00:30.658Z,0.96
2023-02-15T05:01:30.440Z,0.90
2023-02-15T05:02:30.393Z,0.86
2023-02-15T05:03:30.362Z,0.82
2023-02-15T05:04:30.404Z,0.82
2023-02-15T05:05:30.339Z,0.76
2023-02-15T05:06:30.312Z,0.72
2023-02-15T05:07:30.593Z,0.71
2023-02-15T05:08:30.342Z,0.75
2023-02-15T05:09:30.296Z,0.79
2023-02-15T05:10:30.303Z,0.80
2023-02-15T05:11:30.272Z,0.83
2023-02-15T05:12:30.269Z,0.82
2023-02-15T05:13:30.251Z,0.79
2023-02-15T05:14:30.572Z,0.76
2023-02-15T05:15:30.233Z,0.72
2023-02-15T05:16:30.226Z,0.70
2023-02-15T05:17:30.240Z,0.65
2023-02-15T05:18:30.209Z,0.64
2023-02-15T05:19:30.204Z,0.60
2023-02-15T05:20:30.229Z,0.60
2023-02-15T05:21:30.456Z,0.61
2023-02-15T05:22:30.153Z,0.61
2023-02-15T05:23:30.145Z,0.62
2023-02-15T05:24:30.140Z,0.64
2023-02-15T05:25:30.137Z,0.64
2023-02-15T05:26:30.144Z,0.64
2023-02-15T05:27:30.117Z,0.65
2023-02-15T05:28:30.382Z,0.65
2023-02-15T05:29:30.088Z,0.64
2023-02-15T05:30:30.256Z,0.62
2023-02-15T05:31:30.349Z,0.61
2023-02-15T05:32:30.209Z,0.58
2023-02-15T05:33:30.062Z,0.53
2023-02-15T05:34:30.051Z,0.52
2023-02-15T05:35:30.327Z,0.51
2023-02-15T05:36:30.029Z,0.49
2023-02-15T05:37:30.296Z,0.48
2023-02-15T05:38:30.219Z,0.49
2023-02-15T05:39:30.129Z,0.57
2023-02-15T05:40:30.085Z,0.72
2023-02-15T05:41:30.079Z,0.85
2023-02-15T05:42:30.549Z,0.90
2023-02-15T05:43:29.958Z,0.97
2023-02-15T05:44:30.012Z,0.98
2023-02-15T05:45:29.933Z,1.01
2023-02-15T05:46:30.012Z,1.00
2023-02-15T05:47:29.913Z,0.98
2023-02-15T05:48:29.918Z,0.97
2023-02-15T05:49:30.187Z,0.94
2023-02-15T05:50:29.918Z,0.94
2023-02-15T05:51:29.889Z,0.97
2023-02-15T05:52:29.893Z,0.97
2023-02-15T05:53:29.848Z,0.98
2023-02-15T05:54:29.840Z,1.00
2023-02-15T05:55:29.837Z,1.01
2023-02-15T05:56:30.153Z,1.01
2023-02-15T05:57:29.828Z,1.01
2023-02-15T05:58:29.813Z,0.98
2023-02-15T05:59:29.795Z,0.96
2023-02-15T06:00:29.786Z,0.94
2023-02-15T06:01:29.777Z,0.89
2023-02-15T06:02:29.844Z,0.83
2023-02-15T06:03:30.067Z,0.78
2023-02-15T06:04:29.754Z,0.67
2023-02-15T06:05:29.736Z,0.60
2023-02-15T06:06:29.726Z,0.49
2023-02-15T06:07:29.713Z,0.41
2023-02-15T06:08:29.739Z,0.36
2023-02-15T06:09:29.704Z,0.33
2023-02-15T06:10:30.042Z,0.30
2023-02-15T06:11:29.679Z,0.30
2023-02-15T06:12:29.662Z,0.34
2023-02-15T06:13:29.654Z,0.36
2023-02-15T06:14:29.693Z,0.43
2023-02-15T06:15:29.639Z,0.48
2023-02-15T06:16:29.647Z,0.57
2023-02-15T06:17:29.913Z,0.65
2023-02-15T06:18:29.793Z,0.68
2023-02-15T06:19:30.020Z,0.70
2023-02-15T06:20:30.093Z,0.70
2023-02-15T06:21:29.962Z,0.71
2023-02-15T06:22:30.068Z,0.68
2023-02-15T06:23:29.996Z,0.67
2023-02-15T06:24:29.849Z,0.65
2023-02-15T06:25:29.537Z,0.62
2023-02-15T06:26:29.562Z,0.57
2023-02-15T06:27:29.506Z,0.52
2023-02-15T06:28:29.529Z,0.45
2023-02-15T06:29:29.499Z,0.45
2023-02-15T06:30:29.507Z,0.45
2023-02-15T06:31:29.835Z,0.48
2023-02-15T06:32:29.500Z,0.51
2023-02-15T06:33:29.464Z,0.53
2023-02-15T06:34:29.467Z,0.61
2023-02-15T06:35:29.452Z,0.67
2023-02-15T06:36:29.421Z,0.75
2023-02-15T06:37:29.411Z,0.82
2023-02-15T06:38:29.727Z,0.86
2023-02-15T06:39:29.391Z,0.89
2023-02-15T06:40:29.406Z,0.92
2023-02-15T06:41:29.392Z,0.96
2023-02-15T06:42:29.375Z,0.96
2023-02-15T06:43:29.367Z,0.97
2023-02-15T06:44:29.404Z,0.96
2023-02-15T06:45:29.368Z,0.94
2023-02-15T06:46:29.377Z,0.89
2023-02-15T06:47:29.376Z,0.88
2023-02-15T06:48:29.372Z,0.86
2023-02-15T06:49:29.286Z,0.83
2023-02-15T06:50:29.375Z,0.82
2023-02-15T06:51:29.542Z,0.82
2023-02-15T06:52:29.301Z,0.80
2023-02-15T06:53:29.302Z,0.79
2023-02-15T06:54:29.254Z,0.78
2023-02-15T06:55:29.233Z,0.78
2023-02-15T06:56:29.274Z,0.76
2023-02-15T06:57:29.234Z,0.75
2023-02-15T06:58:29.200Z,0.75
2023-02-15T06:59:29.204Z,0.72
2023-02-15T07:00:29.189Z,0.71
2023-02-15T07:01:29.221Z,0.70
2023-02-15T07:02:29.226Z,0.68
2023-02-15T07:03:29.475Z,0.64
2023-02-15T07:04:29.219Z,0.62
2023-02-15T07:05:29.140Z,0.60
2023-02-15T07:06:29.117Z,0.60
2023-02-15T07:07:29.124Z,0.60
2023-02-15T07:08:29.165Z,0.58
2023-02-15T07:09:29.102Z,0.60
2023-02-15T07:10:29.092Z,0.65
2023-02-15T07:11:29.082Z,0.71
2023-02-15T07:12:30.720Z,0.78
2023-02-15T07:13:29.057Z,0.80
2023-02-15T07:14:29.186Z,0.85
2023-02-15T07:15:29.314Z,0.90
2023-02-15T07:16:29.093Z,0.96
2023-02-15T07:17:35.539Z,0.97
2023-02-15T07:18:29.009Z,1.00
2023-02-15T07:19:28.987Z,1.03
2023-02-15T07:20:29.002Z,1.06
2023-02-15T07:21:28.982Z,1.10
2023-02-15T07:22:29.234Z,1.15
2023-02-15T07:23:28.937Z,1.19
2023-02-15T07:24:28.954Z,1.26
2023-02-15T07:25:28.937Z,1.37
2023-02-15T07:26:28.940Z,1.52
2023-02-15T07:27:28.894Z,1.71
2023-02-15T07:28:28.894Z,1.90
2023-02-15T07:29:29.183Z,2.09
2023-02-15T07:30:28.926Z,2.22
2023-02-15T07:31:28.867Z,2.37
2023-02-15T07:32:28.941Z,2.51
2023-02-15T07:33:28.836Z,2.63
2023-02-15T07:34:28.835Z,2.76
2023-02-15T07:35:28.829Z,2.89
2023-02-15T07:36:29.098Z,3.05
2023-02-15T07:37:28.833Z,3.21
2023-02-15T07:38:28.825Z,3.31
2023-02-15T07:39:28.765Z,3.47
2023-02-15T07:40:28.778Z,3.60
2023-02-15T07:41:28.770Z,3.65
2023-02-15T07:42:28.765Z,3.71
2023-02-15T07:43:29.008Z,3.83
2023-02-15T07:44:28.762Z,3.88
2023-02-15T07:45:28.725Z,3.90
2023-02-15T07:46:28.719Z,4.04
2023-02-15T07:47:28.699Z,4.16
2023-02-15T07:48:28.681Z,4.22
2023-02-15T07:49:28.678Z,4.36
2023-02-15T07:50:29.023Z,4.51
2023-02-15T07:51:28.672Z,4.61
2023-02-15T07:52:28.716Z,4.76
2023-02-15T07:53:28.656Z,4.95
2023-02-15T07:54:28.629Z,5.05
2023-02-15T07:55:28.621Z,4.99
2023-02-15T07:56:28.662Z,4.94
2023-02-15T07:57:28.973Z,4.98
2023-02-15T07:58:28.604Z,4.96
2023-02-15T07:59:28.590Z,4.96
2023-02-15T08:00:28.589Z,5.04
2023-02-15T08:01:28.549Z,5.14
2023-02-15T08:02:28.598Z,5.25
2023-02-15T08:03:28.583Z,5.45
2023-02-15T08:04:28.822Z,5.60
2023-02-15T08:05:28.510Z,5.86
2023-02-15T08:06:28.498Z,6.06
2023-02-15T08:07:28.498Z,6.28
2023-02-15T08:08:28.922Z,6.44
2023-02-15T08:09:28.472Z,6.69
2023-02-15T08:10:28.459Z,6.81
2023-02-15T08:11:28.495Z,6.95
2023-02-15T08:12:28.456Z,7.12
2023-02-15T08:13:28.451Z,7.22
2023-02-15T08:14:28.463Z,7.16
2023-02-15T08:15:28.418Z,7.17
2023-02-15T08:16:28.479Z,7.02
2023-02-15T08:17:28.686Z,7.04
2023-02-15T08:18:28.386Z,7.13
2023-02-15T08:19:28.364Z,7.17
2023-02-15T08:20:28.656Z,7.23
2023-02-15T08:21:28.357Z,7.34
2023-02-15T08:22:28.350Z,7.49
2023-02-15T08:23:28.349Z,7.62
2023-02-15T08:24:28.644Z,7.75
2023-02-15T08:25:28.419Z,7.74
2023-02-15T08:26:28.355Z,7.81
2023-02-15T08:27:28.307Z,7.89
2023-02-15T08:28:28.287Z,7.97
2023-02-15T08:29:28.329Z,7.82
2023-02-15T08:30:28.354Z,7.82
2023-02-15T08:31:28.628Z,7.90
2023-02-15T08:32:28.295Z,7.78
2023-02-15T08:33:28.220Z,7.94
2023-02-15T08:34:28.233Z,8.14
2023-02-15T08:35:28.212Z,8.28
2023-02-15T08:36:28.195Z,8.14
2023-02-15T08:37:28.184Z,8.20
2023-02-15T08:38:28.233Z,8.22
2023-02-15T08:39:28.200Z,8.40
2023-02-15T08:40:28.279Z,8.37
2023-02-15T08:41:28.155Z,8.18
2023-02-15T08:42:28.175Z,8.03
2023-02-15T08:43:28.130Z,8.03
2023-02-15T08:44:28.470Z,8.11
2023-02-15T08:45:28.231Z,8.21
2023-02-15T08:46:28.121Z,8.33
2023-02-15T08:47:28.092Z,8.53
2023-02-15T08:48:28.103Z,8.66
2023-02-15T08:49:28.086Z,8.72
2023-02-15T08:50:28.235Z,8.72
2023-02-15T08:51:28.040Z,8.81
2023-02-15T08:52:28.036Z,8.91
2023-02-15T08:53:28.018Z,8.97
2023-02-15T08:54:28.011Z,9.04
2023-02-15T08:55:28.008Z,9.18
2023-02-15T08:56:29.332Z,9.24
2023-02-15T08:57:27.980Z,9.42
2023-02-15T08:58:27.982Z,9.63
2023-02-15T08:59:28.017Z,9.75
2023-02-15T09:00:27.963Z,9.70
2023-02-15T09:01:28.008Z,9.83
2023-02-15T09:02:28.189Z,10.00
2023-02-15T09:03:27.936Z,10.09
2023-02-15T09:04:27.924Z,10.25
2023-02-15T09:05:27.887Z,10.40
2023-02-15T09:06:27.930Z,10.56
2023-02-15T09:07:27.898Z,10.59
2023-02-15T09:08:28.248Z,10.65
2023-02-15T09:09:27.886Z,10.80
2023-02-15T09:10:27.866Z,11.07
2023-02-15T09:11:27.932Z,11.32
2023-02-15T09:12:27.839Z,11.56
2023-02-15T09:13:27.833Z,11.75
2023-02-15T09:14:27.972Z,11.89
2023-02-15T09:15:28.204Z,12.01
2023-02-15T09:16:27.896Z,12.02
2023-02-15T09:17:27.787Z,12.08
2023-02-15T09:18:27.774Z,12.01
2023-02-15T09:19:27.769Z,12.04
2023-02-15T09:20:27.810Z,11.89
2023-02-15T09:21:27.759Z,11.65
2023-02-15T09:22:28.033Z,11.70
2023-02-15T09:23:27.743Z,11.83
2023-02-15T09:24:27.723Z,12.05
2023-02-15T09:25:27.695Z,12.23
2023-02-15T09:26:27.735Z,12.49
2023-02-15T09:27:27.687Z,12.79
2023-02-15T09:28:27.679Z,12.44
2023-02-15T09:29:27.981Z,12.11
2023-02-15T09:30:27.931Z,12.13
2023-02-15T09:31:27.809Z,12.31
2023-02-15T09:32:27.660Z,12.54
2023-02-15T09:33:27.602Z,12.79
2023-02-15T09:34:27.616Z,12.49
2023-02-15T09:35:27.575Z,12.39
2023-02-15T09:36:27.887Z,12.34
2023-02-15T09:37:27.558Z,12.44
2023-02-15T09:38:27.598Z,12.78
2023-02-15T09:39:27.550Z,13.06
2023-02-15T09:40:27.542Z,13.24
2023-02-15T09:41:27.553Z,13.55
2023-02-15T09:42:27.515Z,13.65
2023-02-15T09:43:27.790Z,13.69
2023-02-15T09:44:27.534Z,13.87
2023-02-15T09:45:27.502Z,13.76
2023-02-15T09:46:27.504Z,13.58
2023-02-15T09:47:27.457Z,13.76
2023-02-15T09:48:27.435Z,13.69
2023-02-15T09:49:27.459Z,13.43
2023-02-15T09:50:27.460Z,13.40
2023-02-15T09:51:27.421Z,13.55
2023-02-15T09:52:27.423Z,13.58
2023-02-15T09:53:27.403Z,13.71
2023-02-15T09:54:27.389Z,13.29
2023-02-15T09:55:27.379Z,13.36
2023-02-15T09:56:27.414Z,13.55
2023-02-15T09:57:27.376Z,13.65
2023-02-15T09:58:27.361Z,13.77
2023-02-15T09:59:27.341Z,13.98
2023-02-15T10:00:27.345Z,13.91
2023-02-15T10:01:27.384Z,14.01
2023-02-15T10:02:27.380Z,14.09
2023-02-15T10:03:27.336Z,14.25
2023-02-15T10:04:27.311Z,14.19
2023-02-15T10:05:27.288Z,14.13
2023-02-15T10:06:27.259Z,14.09
2023-02-15T10:07:27.251Z,14.31
2023-02-15T10:08:27.572Z,14.35
2023-02-15T10:09:27.245Z,14.27
2023-02-15T10:10:27.240Z,14.62
2023-02-15T10:11:27.235Z,15.09
2023-02-15T10:12:27.200Z,15.49
2023-02-15T10:13:27.174Z,15.78
2023-02-15T10:14:27.226Z,15.99
2023-02-15T10:15:27.234Z,16.15
2023-02-15T10:16:27.181Z,16.01
2023-02-15T10:17:27.159Z,15.97
2023-02-15T10:18:27.152Z,15.82
2023-02-15T10:19:28.642Z,15.12
2023-02-15T10:20:27.180Z,15.33
2023-02-15T10:21:27.111Z,15.43
2023-02-15T10:22:27.105Z,15.67
2023-02-15T10:23:27.112Z,15.36
2023-02-15T10:24:27.090Z,14.91
2023-02-15T10:25:27.064Z,15.20
2023-02-15T10:26:27.107Z,15.23
2023-02-15T10:27:27.056Z,14.98
2023-02-15T10:28:27.029Z,15.15
2023-02-15T10:29:27.051Z,15.03
2023-02-15T10:30:27.155Z,15.30
2023-02-15T10:31:27.320Z,15.43
2023-02-15T10:32:28.320Z,15.21
2023-02-15T10:33:26.992Z,14.87
2023-02-15T10:34:26.979Z,14.98
2023-02-15T10:35:26.984Z,15.13
2023-02-15T10:36:26.971Z,15.39
2023-02-15T10:37:27.009Z,15.76
2023-02-15T10:38:26.976Z,15.99
2023-02-15T10:39:27.191Z,16.31
2023-02-15T10:40:26.899Z,16.60
2023-02-15T10:41:26.902Z,16.90
2023-02-15T10:42:26.910Z,17.20
2023-02-15T10:43:26.897Z,17.47
2023-02-15T10:44:26.905Z,17.79
2023-02-15T10:45:26.864Z,17.97
2023-02-15T10:46:27.181Z,18.03
2023-02-15T10:47:26.859Z,17.99
2023-02-15T10:48:26.859Z,18.10
2023-02-15T10:49:26.807Z,18.36
2023-02-15T10:50:26.835Z,18.31
2023-02-15T10:51:26.790Z,18.22
2023-02-15T10:52:27.026Z,18.10
2023-02-15T10:53:27.050Z,17.97
2023-02-15T10:54:26.738Z,17.99
2023-02-15T10:55:26.764Z,18.00
2023-02-15T10:56:26.802Z,18.09
2023-02-15T10:57:26.728Z,18.09
2023-02-15T10:58:26.705Z,18.18
2023-02-15T10:59:26.737Z,18.36
2023-02-15T11:00:27.001Z,18.42
2023-02-15T11:01:26.726Z,18.46
2023-02-15T11:02:26.771Z,18.40
2023-02-15T11:03:26.659Z,18.25
2023-02-15T11:04:26.666Z,18.36
2023-02-15T11:05:26.657Z,18.57
2023-02-15T11:06:26.638Z,18.70
2023-02-15T11:07:26.914Z,18.84
2023-02-15T11:08:26.643Z,18.91
2023-02-15T11:09:26.647Z,18.80
2023-02-15T11:10:26.598Z,18.40
2023-02-15T11:11:26.596Z,18.27
2023-02-15T11:12:26.584Z,18.34
2023-02-15T11:13:26.591Z,18.40
2023-02-15T11:14:26.879Z,18.49
2023-02-15T11:15:26.554Z,18.49
2023-02-15T11:16:26.547Z,18.58
2023-02-15T11:17:26.526Z,18.61
2023-02-15T11:18:26.503Z,18.58
2023-02-15T11:19:26.498Z,18.39
2023-02-15T11:20:26.594Z,18.27
2023-02-15T11:21:26.761Z,18.13
2023-02-15T11:22:26.479Z,17.92
2023-02-15T11:23:26.466Z,17.67
2023-02-15T11:24:26.437Z,17.62
2023-02-15T11:25:26.428Z,17.44
2023-02-15T11:26:26.465Z,17.44
2023-02-15T11:27:26.460Z,17.26
2023-02-15T11:28:26.398Z,17.18
2023-02-15T11:29:26.447Z,16.99
2023-02-15T11:30:26.442Z,17.00
2023-02-15T11:31:26.527Z,16.93
2023-02-15T11:32:26.413Z,16.88
2023-02-15T11:33:26.403Z,17.11
2023-02-15T11:34:26.634Z,17.17
2023-02-15T11:35:26.338Z,17.18
2023-02-15T11:36:26.312Z,17.35
2023-02-15T11:37:26.330Z,17.48
2023-02-15T11:38:26.334Z,17.47
2023-02-15T11:39:26.313Z,17.46
2023-02-15T11:40:26.279Z,17.44
2023-02-15T11:41:26.578Z,17.40
2023-02-15T11:42:26.234Z,17.40
2023-02-15T11:43:26.239Z,17.46
2023-02-15T11:44:26.291Z,17.38
2023-02-15T11:45:26.221Z,17.29
2023-02-15T11:46:26.232Z,17.20
2023-02-15T11:47:26.198Z,17.20
2023-02-15T11:48:26.469Z,17.33
2023-02-15T11:49:26.172Z,17.43
2023-02-15T11:50:26.238Z,17.50
2023-02-15T11:51:26.166Z,17.62
2023-02-15T11:52:26.159Z,17.71
2023-02-15T11:53:26.135Z,17.85
2023-02-15T11:54:26.116Z,17.99
2023-02-15T11:55:26.379Z,18.18
2023-02-15T11:56:26.111Z,18.43
2023-02-15T11:57:26.104Z,18.54
2023-02-15T11:58:26.072Z,18.67
2023-02-15T11:59:26.056Z,18.73
2023-02-15T12:00:26.071Z,18.68
2023-02-15T12:01:26.049Z,18.57
2023-02-15T12:02:26.424Z,18.49
2023-02-15T12:03:26.036Z,18.49
2023-02-15T12:04:26.022Z,18.40
2023-02-15T12:05:26.003Z,18.54
2023-02-15T12:06:25.990Z,18.72
2023-02-15T12:07:25.995Z,19.06
2023-02-15T12:08:26.016Z,19.17
2023-02-15T12:09:26.029Z,19.36
2023-02-15T12:10:26.032Z,19.51
2023-02-15T12:11:26.011Z,19.54
2023-02-15T12:12:25.975Z,19.63
2023-02-15T12:13:25.944Z,19.75
2023-02-15T12:14:25.958Z,19.70
2023-02-15T12:15:25.920Z,19.63
2023-02-15T12:16:25.928Z,19.42
2023-02-15T12:17:25.881Z,19.36
2023-02-15T12:18:25.858Z,18.76
2023-02-15T12:19:25.851Z,18.74
2023-02-15T12:20:26.221Z,18.90
2023-02-15T12:21:27.604Z,19.08
2023-02-15T12:22:25.813Z,19.08
2023-02-15T12:23:25.822Z,19.23
2023-02-15T12:24:25.789Z,19.13
2023-02-15T12:25:25.871Z,19.01
2023-02-15T12:26:25.826Z,19.13
2023-02-15T12:27:25.774Z,19.29
2023-02-15T12:28:25.805Z,19.20
2023-02-15T12:29:25.763Z,19.02
2023-02-15T12:30:25.899Z,18.76
2023-02-15T12:31:25.892Z,18.17
2023-02-15T12:32:26.208Z,18.10
2023-02-15T12:33:25.738Z,17.87
2023-02-15T12:34:25.704Z,17.64
2023-02-15T12:35:25.678Z,17.92
2023-02-15T12:36:25.668Z,18.39
2023-02-15T12:37:25.651Z,18.31
2023-02-15T12:38:25.745Z,18.04
2023-02-15T12:39:25.949Z,17.64
2023-02-15T12:40:25.636Z,17.30
2023-02-15T12:41:25.633Z,17.11
2023-02-15T12:42:25.602Z,17.41
2023-02-15T12:43:25.608Z,17.67
2023-02-15T12:44:25.697Z,17.87
2023-02-15T12:45:25.600Z,18.09
2023-02-15T12:46:25.628Z,18.24
2023-02-15T12:47:32.659Z,18.25
2023-02-15T12:48:25.554Z,17.57
2023-02-15T12:49:25.573Z,17.36
2023-02-15T12:50:25.599Z,17.40
2023-02-15T12:51:25.524Z,16.70
2023-02-15T12:52:25.806Z,16.80
2023-02-15T12:53:25.588Z,17.08
2023-02-15T12:54:25.498Z,17.50
2023-02-15T12:55:25.514Z,18.06
2023-02-15T12:56:25.527Z,18.29
2023-02-15T12:57:25.460Z,18.39
2023-02-15T12:58:25.508Z,17.78
2023-02-15T12:59:25.717Z,17.63
2023-02-15T13:00:25.410Z,17.54
2023-02-15T13:01:25.661Z,17.41
2023-02-15T13:02:25.471Z,17.66
2023-02-15T13:03:25.385Z,18.09
2023-02-15T13:04:25.364Z,18.42
2023-02-15T13:05:25.355Z,18.79
2023-02-15T13:06:25.633Z,19.06
2023-02-15T13:07:25.385Z,19.20
2023-02-15T13:08:25.386Z,19.55
2023-02-15T13:09:25.346Z,19.50
2023-02-15T13:10:25.333Z,19.47